Belvidere, Illinois
Current Conditions -  °F | °C
As of 3:54 PM on Saturday 20 Dec 2014 (Local Time) from KRFD Reporting Station
Overcast Overcast  
Wind Chill: 26°   Ceiling: 3600
Heat Index: 31°   Visibility: 7mi
Dew Point: 24°   Wind: 5mph
Humidity: 76%   Direction: 170°S
Pressure: 30.25"   Gusts: NA
Location:  42.26°N, 88.84°W
Report Text: KRFD 202154Z 17004KT 7SM OVC036 M01/M04 A3025 RMK AO2 SLP252 T10061044
Loading
Personal Weather Stations






























Interactive Weather Map New forecast layout! Learn more

10-Day Weather Forecast

Advertisements
Track Severe Weather on mobile